createdAt,value
2022-12-12T00:00:53.959Z,17.27
2022-12-12T00:03:21.882Z,14.17
2022-12-12T00:05:55.011Z,12.37
2022-12-12T00:08:22.898Z,12.23
2022-12-12T00:10:50.761Z,12.73
2022-12-12T00:13:18.512Z,15.30
2022-12-12T00:15:46.374Z,13.33
2022-12-12T00:18:14.150Z,15.23
2022-12-12T00:20:42.096Z,14.50
2022-12-12T00:23:11.219Z,11.80
2022-12-12T00:25:38.946Z,13.63
2022-12-12T00:28:06.740Z,13.70
2022-12-12T00:30:34.540Z,12.20
2022-12-12T00:33:02.312Z,14.57
2022-12-12T00:35:30.090Z,13.40
2022-12-12T00:37:57.852Z,13.23
2022-12-12T00:40:26.967Z,11.43
2022-12-12T00:42:54.722Z,13.03
2022-12-12T00:45:22.477Z,15.40
2022-12-12T00:47:50.236Z,13.83
2022-12-12T00:50:18.144Z,12.63
2022-12-12T00:52:45.900Z,12.37
2022-12-12T00:55:15.021Z,14.13
2022-12-12T00:57:44.235Z,17.80
2022-12-12T01:00:15.711Z,15.20
2022-12-12T01:02:44.010Z,16.53
2022-12-12T01:05:12.389Z,14.70
2022-12-12T01:07:40.735Z,14.90
2022-12-12T01:10:10.179Z,15.60
2022-12-12T01:12:37.999Z,15.13
2022-12-12T01:15:09.674Z,15.83
2022-12-12T01:17:38.556Z,18.63
2022-12-12T01:20:08.378Z,12.90
2022-12-12T01:22:37.083Z,14.00
2022-12-12T01:25:05.224Z,12.57
2022-12-12T01:27:33.163Z,15.67
2022-12-12T01:30:02.341Z,12.53
2022-12-12T01:32:31.543Z,14.23
2022-12-12T01:34:59.330Z,15.80
2022-12-12T01:37:27.096Z,14.60
2022-12-12T01:39:54.876Z,15.50
2022-12-12T01:42:22.738Z,12.40
2022-12-12T01:44:52.834Z,11.47
2022-12-12T01:47:22.823Z,13.07
2022-12-12T01:49:56.435Z,13.20
2022-12-12T01:52:29.720Z,13.80
2022-12-12T01:55:01.501Z,12.23
2022-12-12T01:57:34.978Z,14.70
2022-12-12T02:00:05.999Z,13.47
2022-12-12T02:02:36.743Z,13.80
2022-12-12T02:05:11.254Z,13.17
2022-12-12T02:07:39.163Z,15.37
2022-12-12T02:10:08.095Z,12.97
2022-12-12T02:12:36.505Z,13.43
2022-12-12T02:15:04.454Z,14.13
2022-12-12T02:18:12.378Z,12.10
2022-12-12T02:21:01.606Z,15.63
2022-12-12T02:24:09.320Z,14.13
2022-12-12T02:27:13.670Z,13.83
2022-12-12T02:30:04.157Z,16.63
2022-12-12T02:32:46.673Z,17.07
2022-12-12T02:35:20.379Z,16.13
2022-12-12T02:37:54.195Z,15.40
2022-12-12T02:40:25.824Z,13.57
2022-12-12T02:43:00.543Z,15.83
2022-12-12T02:45:35.085Z,18.07
2022-12-12T02:48:12.001Z,12.80
2022-12-12T02:50:42.464Z,13.50
2022-12-12T02:53:10.833Z,14.57
2022-12-12T02:55:38.733Z,16.57
2022-12-12T02:58:07.572Z,16.93
2022-12-12T03:00:50.952Z,13.80
2022-12-12T03:03:52.464Z,13.67
2022-12-12T03:06:52.996Z,15.33
2022-12-12T03:09:31.664Z,14.57
2022-12-12T03:12:08.137Z,14.93
2022-12-12T03:14:45.066Z,15.27
2022-12-12T03:17:19.216Z,16.67
2022-12-12T03:19:57.240Z,16.90
2022-12-12T03:22:29.691Z,16.30
2022-12-12T03:25:04.656Z,18.97
2022-12-12T03:27:38.020Z,17.00
2022-12-12T03:30:08.515Z,15.43
2022-12-12T03:32:40.941Z,14.10
2022-12-12T03:35:16.469Z,13.17
2022-12-12T03:37:48.659Z,18.30
2022-12-12T03:40:23.753Z,15.93
2022-12-12T03:42:59.063Z,17.70
2022-12-12T03:45:30.544Z,18.87
2022-12-12T03:48:05.672Z,17.30
2022-12-12T03:50:40.043Z,15.27
2022-12-12T03:53:11.128Z,17.27
2022-12-12T03:55:44.672Z,14.90
2022-12-12T03:58:19.950Z,14.70
2022-12-12T04:00:50.271Z,17.30
2022-12-12T04:03:26.353Z,16.07
2022-12-12T04:06:19.064Z,15.53
2022-12-12T04:09:01.711Z,19.03
2022-12-12T04:11:57.880Z,14.20
2022-12-12T04:14:42.275Z,14.67
2022-12-12T04:17:13.753Z,14.80
2022-12-12T04:20:09.869Z,13.87
2022-12-12T04:23:15.354Z,11.13
2022-12-12T04:26:05.869Z,12.63
2022-12-12T04:28:35.416Z,15.13
2022-12-12T04:31:05.829Z,12.00
2022-12-12T04:33:40.273Z,10.30
2022-12-12T04:36:10.642Z,11.73
2022-12-12T04:38:41.012Z,12.17
2022-12-12T04:41:12.665Z,10.30
2022-12-12T04:43:43.224Z,12.37
2022-12-12T04:46:15.876Z,9.90
2022-12-12T04:48:51.851Z,10.97
2022-12-12T04:51:25.726Z,12.30
2022-12-12T04:54:01.127Z,11.23
2022-12-12T04:56:31.207Z,12.30
2022-12-12T04:58:59.664Z,10.37
2022-12-12T05:01:36.242Z,12.07
2022-12-12T05:04:09.864Z,11.77
2022-12-12T05:06:44.336Z,9.03
2022-12-12T05:09:15.517Z,11.37
2022-12-12T05:11:43.628Z,12.00
2022-12-12T05:14:12.297Z,11.03
2022-12-12T05:16:45.782Z,11.87
2022-12-12T05:19:13.768Z,12.57
2022-12-12T05:21:41.955Z,11.93
2022-12-12T05:24:10.158Z,12.00
2022-12-12T05:26:39.458Z,11.53
2022-12-12T05:29:07.822Z,9.47
2022-12-12T05:31:35.923Z,10.60
2022-12-12T05:34:05.375Z,11.00
2022-12-12T05:36:33.523Z,12.53
2022-12-12T05:39:01.397Z,11.53
2022-12-12T05:41:29.297Z,10.00
2022-12-12T05:43:58.615Z,9.77
2022-12-12T05:46:26.525Z,11.13
2022-12-12T05:48:54.443Z,11.70
2022-12-12T05:51:22.684Z,10.63
2022-12-12T05:53:50.564Z,13.77
2022-12-12T05:56:18.423Z,11.80
2022-12-12T05:58:46.339Z,10.57
2022-12-12T06:01:15.667Z,9.77
2022-12-12T06:03:43.561Z,10.53
2022-12-12T06:06:11.492Z,12.73
2022-12-12T06:08:39.369Z,11.27
2022-12-12T06:11:07.896Z,10.60
2022-12-12T06:13:36.274Z,12.90
2022-12-12T06:16:07.616Z,8.80
2022-12-12T06:18:37.393Z,13.33
2022-12-12T06:21:06.910Z,9.70
2022-12-12T06:23:37.236Z,10.47
2022-12-12T06:26:05.694Z,13.50
2022-12-12T06:28:34.035Z,10.10
2022-12-12T06:31:03.559Z,8.03
2022-12-12T06:33:35.561Z,7.57
2022-12-12T06:36:07.056Z,10.87
2022-12-12T06:38:35.973Z,10.40
2022-12-12T06:41:07.140Z,11.57
2022-12-12T06:43:35.392Z,12.47
2022-12-12T06:46:03.963Z,12.47
2022-12-12T06:48:33.105Z,12.70
2022-12-12T06:51:06.097Z,14.23
2022-12-12T06:53:35.330Z,14.07
2022-12-12T06:56:07.552Z,10.57
2022-12-12T06:58:35.451Z,8.80
2022-12-12T07:01:03.929Z,13.90
2022-12-12T07:03:31.855Z,12.37
2022-12-12T07:05:59.818Z,9.00
2022-12-12T07:08:28.673Z,14.33
2022-12-12T07:11:03.750Z,12.57
2022-12-12T07:13:31.732Z,12.00
2022-12-12T07:15:59.783Z,14.00
2022-12-12T07:18:27.840Z,11.67
2022-12-12T07:20:55.761Z,14.13
2022-12-12T07:23:23.674Z,15.73
2022-12-12T07:25:51.619Z,11.10
2022-12-12T07:28:20.839Z,13.83
2022-12-12T07:30:49.301Z,10.80
2022-12-12T07:33:18.312Z,13.90
2022-12-12T07:35:46.179Z,12.17
2022-12-12T07:38:14.239Z,10.23
2022-12-12T07:40:42.363Z,12.53
2022-12-12T07:43:10.214Z,11.33
2022-12-12T07:45:39.419Z,9.60
2022-12-12T07:48:07.372Z,9.70
2022-12-12T07:50:35.254Z,8.87
2022-12-12T07:53:03.128Z,10.00
2022-12-12T07:55:31.192Z,12.63
2022-12-12T07:57:59.425Z,11.63
2022-12-12T08:00:27.820Z,13.53
2022-12-12T08:02:57.073Z,13.80
2022-12-12T08:05:24.962Z,9.27
2022-12-12T08:07:52.877Z,11.50
2022-12-12T08:10:20.976Z,13.90
2022-12-12T08:12:48.835Z,13.17
2022-12-12T08:15:18.723Z,10.17
2022-12-12T08:17:46.608Z,10.43
2022-12-12T08:20:16.957Z,13.90
2022-12-12T08:22:44.861Z,15.43
2022-12-12T08:25:12.934Z,13.00
2022-12-12T08:27:41.036Z,13.57
2022-12-12T08:30:10.194Z,12.43
2022-12-12T08:32:38.073Z,12.17
2022-12-12T08:35:06.971Z,14.23
2022-12-12T08:37:36.188Z,13.40
2022-12-12T08:40:04.491Z,13.63
2022-12-12T08:42:32.383Z,13.73
2022-12-12T08:45:00.311Z,12.43
2022-12-12T08:47:29.031Z,11.77
2022-12-12T08:49:56.995Z,11.80
2022-12-12T08:52:24.904Z,11.57
2022-12-12T08:54:54.091Z,10.43
2022-12-12T08:57:25.876Z,11.30
2022-12-12T08:59:54.054Z,11.13
2022-12-12T09:02:22.034Z,12.13
2022-12-12T09:04:50.052Z,12.03
2022-12-12T09:07:17.932Z,13.53
2022-12-12T09:09:45.807Z,15.27
2022-12-12T09:12:16.044Z,15.70
2022-12-12T09:14:43.924Z,15.47
2022-12-12T09:17:11.796Z,15.63
2022-12-12T09:19:39.940Z,16.07
2022-12-12T09:22:07.811Z,18.33
2022-12-12T09:24:35.688Z,14.30
2022-12-12T09:27:03.553Z,12.80
2022-12-12T09:29:32.828Z,16.90
2022-12-12T09:32:06.207Z,17.60
2022-12-12T09:34:34.306Z,15.43
2022-12-12T09:37:02.279Z,16.43
2022-12-12T09:39:30.764Z,16.27
2022-12-12T09:41:59.168Z,15.93
2022-12-12T09:44:27.515Z,13.63
2022-12-12T09:47:02.037Z,14.83
2022-12-12T09:49:43.232Z,14.43
2022-12-12T09:52:15.563Z,10.70
2022-12-12T09:54:44.144Z,13.30
2022-12-12T09:57:24.704Z,12.90
2022-12-12T09:59:59.032Z,12.97
2022-12-12T10:02:43.799Z,11.77
2022-12-12T10:05:27.983Z,14.90
2022-12-12T10:08:02.904Z,14.83
2022-12-12T10:10:35.059Z,17.77
2022-12-12T10:13:06.109Z,13.83
2022-12-12T10:15:38.666Z,12.60
2022-12-12T10:18:15.694Z,15.00
2022-12-12T10:20:48.633Z,12.53
2022-12-12T10:23:23.763Z,14.33
2022-12-12T10:25:56.244Z,15.53
2022-12-12T10:28:26.944Z,14.93
2022-12-12T10:31:17.504Z,11.50
2022-12-12T10:34:02.769Z,13.93
2022-12-12T10:36:42.548Z,12.73
2022-12-12T10:39:18.963Z,17.93
2022-12-12T10:41:53.748Z,14.23
2022-12-12T10:44:35.001Z,13.73
2022-12-12T10:47:05.934Z,16.50
2022-12-12T10:49:35.506Z,18.23
2022-12-12T10:52:05.612Z,17.70
2022-12-12T10:54:39.040Z,14.73
2022-12-12T10:57:20.117Z,17.80
2022-12-12T10:59:51.428Z,14.07
2022-12-12T11:02:35.596Z,17.93
2022-12-12T11:05:11.064Z,12.60
2022-12-12T11:07:41.785Z,15.13
2022-12-12T11:10:26.837Z,14.20
2022-12-12T11:13:01.005Z,14.17
2022-12-12T11:15:39.171Z,13.30
2022-12-12T11:18:08.091Z,12.47
2022-12-12T11:20:45.588Z,11.30
2022-12-12T11:23:19.784Z,13.50
2022-12-12T11:25:54.966Z,14.73
2022-12-12T11:28:25.141Z,15.67
2022-12-12T11:30:55.045Z,12.37
2022-12-12T11:33:31.207Z,14.27
2022-12-12T11:36:01.786Z,12.60
2022-12-12T11:38:41.903Z,12.87
2022-12-12T11:41:12.796Z,12.90
2022-12-12T11:43:54.788Z,12.03
2022-12-12T11:46:26.553Z,11.07
2022-12-12T11:49:00.581Z,15.03
2022-12-12T11:51:36.170Z,12.43
2022-12-12T11:54:06.096Z,10.80
2022-12-12T11:56:43.908Z,12.30
2022-12-12T11:59:45.096Z,13.27
2022-12-12T12:02:32.208Z,11.13
2022-12-12T12:05:09.353Z,12.13
2022-12-12T12:07:55.237Z,10.87
2022-12-12T12:10:40.324Z,10.33
2022-12-12T12:13:23.155Z,10.07
2022-12-12T12:16:00.092Z,10.90
2022-12-12T12:18:50.003Z,10.43
2022-12-12T12:21:29.309Z,10.93
2022-12-12T12:24:18.095Z,11.43
2022-12-12T12:26:57.168Z,7.40
2022-12-12T12:29:57.889Z,10.20
2022-12-12T12:32:39.783Z,11.40
2022-12-12T12:35:24.412Z,10.83
2022-12-12T12:38:02.022Z,10.47
2022-12-12T12:40:57.217Z,8.37
2022-12-12T12:43:40.093Z,8.00
2022-12-12T12:46:14.068Z,8.70
2022-12-12T12:48:46.216Z,7.63
2022-12-12T12:51:20.320Z,8.33
2022-12-12T12:53:52.512Z,7.87
2022-12-12T12:56:26.832Z,8.27
2022-12-12T12:58:59.080Z,9.20
2022-12-12T13:01:32.067Z,8.77
2022-12-12T13:04:06.168Z,8.53
2022-12-12T13:06:41.324Z,10.93
2022-12-12T13:09:18.983Z,9.70
2022-12-12T13:11:52.136Z,10.80
2022-12-12T13:14:29.954Z,11.70
2022-12-12T13:17:06.308Z,8.83
2022-12-12T13:19:38.820Z,11.00
2022-12-12T13:22:14.706Z,10.07
2022-12-12T13:24:49.209Z,8.67
2022-12-12T13:27:21.746Z,10.30
2022-12-12T13:29:54.692Z,11.17
2022-12-12T13:32:51.011Z,9.47
2022-12-12T13:35:25.495Z,10.03
2022-12-12T13:37:54.889Z,8.57
2022-12-12T13:40:28.906Z,8.80
2022-12-12T13:43:08.780Z,11.23
2022-12-12T13:45:43.781Z,9.87
2022-12-12T13:48:34.111Z,10.23
2022-12-12T13:51:48.005Z,10.43
2022-12-12T13:54:47.964Z,9.63
2022-12-12T13:57:23.448Z,11.33
2022-12-12T14:00:26.573Z,9.03
2022-12-12T14:03:05.145Z,9.17
2022-12-12T14:05:36.704Z,9.67
2022-12-12T14:08:09.079Z,10.57
2022-12-12T14:10:40.417Z,12.37
2022-12-12T14:13:30.303Z,12.10
2022-12-12T14:16:05.984Z,10.70
2022-12-12T14:18:38.144Z,11.40
2022-12-12T14:21:09.553Z,9.43
2022-12-12T14:23:38.704Z,11.37
2022-12-12T14:26:44.637Z,11.43
2022-12-12T14:29:25.187Z,11.63
2022-12-12T14:32:05.481Z,11.17
2022-12-12T14:34:39.915Z,9.57
2022-12-12T14:37:35.834Z,11.13
2022-12-12T14:40:15.674Z,11.90
2022-12-12T14:43:19.777Z,11.70
2022-12-12T14:45:40.818Z,10.63
2022-12-12T14:48:19.682Z,11.17
2022-12-12T14:51:07.504Z,11.57
2022-12-12T14:53:48.701Z,12.90
2022-12-12T14:56:18.767Z,9.97
2022-12-12T14:58:50.504Z,10.90
2022-12-12T15:01:29.765Z,10.23
2022-12-12T15:04:00.335Z,10.63
2022-12-12T15:06:30.863Z,11.83
2022-12-12T15:09:08.514Z,9.80
2022-12-12T15:11:36.854Z,11.60
2022-12-12T15:14:05.828Z,9.70
2022-12-12T15:16:47.426Z,9.60
2022-12-12T15:19:20.470Z,10.70
2022-12-12T15:21:49.253Z,9.30
2022-12-12T15:24:22.869Z,9.60
2022-12-12T15:26:53.769Z,9.57
2022-12-12T15:29:24.568Z,10.77
2022-12-12T15:31:58.050Z,9.30
2022-12-12T15:34:36.238Z,7.87
2022-12-12T15:37:29.437Z,12.77
2022-12-12T15:40:20.376Z,11.97
2022-12-12T15:42:52.583Z,14.83
2022-12-12T15:45:25.671Z,11.40
2022-12-12T15:47:55.181Z,10.87
2022-12-12T15:50:26.887Z,11.47
2022-12-12T15:53:03.917Z,11.63
2022-12-12T15:55:32.555Z,11.30
2022-12-12T15:58:00.421Z,11.20
2022-12-12T16:00:35.078Z,11.17
2022-12-12T16:03:07.668Z,11.93
2022-12-12T16:05:39.056Z,9.00
2022-12-12T16:08:32.008Z,13.20
2022-12-12T16:11:02.425Z,11.07
2022-12-12T16:13:38.301Z,11.40
2022-12-12T16:16:39.023Z,8.70
2022-12-12T16:19:20.564Z,9.77
2022-12-12T16:21:49.999Z,10.50
2022-12-12T16:24:23.481Z,11.30
2022-12-12T16:26:51.517Z,10.50
2022-12-12T16:29:19.451Z,13.90
2022-12-12T16:31:48.153Z,12.80
2022-12-12T16:34:21.588Z,13.17
2022-12-12T16:36:50.860Z,10.73
2022-12-12T16:39:18.709Z,9.43
2022-12-12T16:41:46.728Z,12.33
2022-12-12T16:44:14.671Z,10.77
2022-12-12T16:46:42.541Z,11.73
2022-12-12T16:49:15.034Z,10.93
2022-12-12T16:51:43.489Z,10.70
2022-12-12T16:54:16.967Z,11.20
2022-12-12T16:56:52.248Z,15.27
2022-12-12T16:59:20.104Z,12.23
2022-12-12T17:01:47.998Z,12.73
2022-12-12T17:04:20.932Z,12.50
2022-12-12T17:06:48.964Z,16.47
2022-12-12T17:09:18.306Z,14.43
2022-12-12T17:11:46.325Z,14.90
2022-12-12T17:14:18.802Z,15.17
2022-12-12T17:16:46.804Z,18.07
2022-12-12T17:19:14.984Z,17.07
2022-12-12T17:21:42.834Z,19.50
2022-12-12T17:24:10.965Z,18.87
2022-12-12T17:26:40.956Z,16.57
2022-12-12T17:29:10.160Z,17.23
2022-12-12T17:31:38.110Z,15.33
2022-12-12T17:34:06.949Z,12.90
2022-12-12T17:36:35.045Z,17.63
2022-12-12T17:39:03.252Z,15.83
2022-12-12T17:41:31.157Z,14.13
2022-12-12T17:44:00.454Z,14.10
2022-12-12T17:46:29.780Z,11.73
2022-12-12T17:48:59.426Z,12.77
2022-12-12T17:51:29.334Z,13.20
2022-12-12T17:53:59.890Z,15.43
2022-12-12T17:56:28.084Z,14.83
2022-12-12T17:58:56.192Z,13.93
2022-12-12T18:01:28.454Z,16.93
2022-12-12T18:03:57.249Z,17.83
2022-12-12T18:06:26.469Z,18.70
2022-12-12T18:08:55.498Z,22.60
2022-12-12T18:11:26.730Z,24.77
2022-12-12T18:13:57.456Z,28.60
2022-12-12T18:16:27.906Z,21.87
2022-12-12T18:18:56.097Z,24.63
2022-12-12T18:21:59.283Z,21.23
2022-12-12T18:24:15.440Z,18.73
2022-12-12T18:26:44.323Z,19.73
2022-12-12T18:29:14.307Z,15.50
2022-12-12T18:31:43.609Z,20.23
2022-12-12T18:34:11.509Z,20.10
2022-12-12T18:36:39.725Z,21.13
2022-12-12T18:39:07.946Z,17.20
2022-12-12T18:41:37.402Z,17.23
2022-12-12T18:44:07.163Z,18.07
2022-12-12T18:46:42.267Z,17.97
2022-12-12T18:49:13.576Z,22.90
2022-12-12T18:51:41.993Z,17.23
2022-12-12T18:54:14.706Z,23.53
2022-12-12T18:56:44.630Z,26.83
2022-12-12T18:59:12.679Z,20.83
2022-12-12T19:01:41.027Z,19.77
2022-12-12T19:04:13.105Z,17.47
2022-12-12T19:06:44.683Z,17.77
2022-12-12T19:09:15.935Z,14.77
2022-12-12T19:11:44.316Z,14.40
2022-12-12T19:14:15.072Z,15.77
2022-12-12T19:16:43.968Z,16.63
2022-12-12T19:19:12.623Z,19.43
2022-12-12T19:21:41.124Z,18.37
2022-12-12T19:24:12.216Z,14.33
2022-12-12T19:26:43.749Z,17.00
2022-12-12T19:29:13.617Z,15.77
2022-12-12T19:31:41.669Z,12.63
2022-12-12T19:34:11.527Z,17.93
2022-12-12T19:36:40.302Z,19.90
2022-12-12T19:39:11.288Z,17.43
2022-12-12T19:41:39.188Z,18.53
2022-12-12T19:44:08.898Z,17.33
2022-12-12T19:46:36.932Z,20.50
2022-12-12T19:49:08.253Z,19.17
2022-12-12T19:51:39.132Z,17.97
2022-12-12T19:54:10.693Z,20.93
2022-12-12T19:56:40.924Z,22.77
2022-12-12T19:59:09.789Z,16.60
2022-12-12T20:01:38.719Z,21.60
2022-12-12T20:04:08.721Z,26.07
2022-12-12T20:06:44.544Z,22.10
2022-12-12T20:09:15.303Z,21.77
2022-12-12T20:11:45.184Z,20.70
2022-12-12T20:14:14.969Z,20.40
2022-12-12T20:16:43.165Z,20.53
2022-12-12T20:19:11.596Z,18.03
2022-12-12T20:24:33.928Z,25.20
2022-12-12T20:27:03.421Z,23.07
2022-12-12T20:29:32.176Z,19.87
2022-12-12T20:32:01.210Z,20.77
2022-12-12T20:34:30.158Z,19.77
2022-12-12T20:36:58.578Z,22.00
2022-12-12T20:39:26.503Z,21.43
2022-12-12T20:41:56.875Z,23.67
2022-12-12T20:44:25.705Z,21.83
2022-12-12T20:46:53.842Z,21.57
2022-12-12T20:49:23.830Z,16.87
2022-12-12T20:51:56.952Z,18.80
2022-12-12T20:54:26.305Z,16.43
2022-12-12T20:56:55.659Z,15.20
2022-12-12T20:59:24.495Z,14.53
2022-12-12T21:01:52.501Z,15.27
2022-12-12T21:04:20.797Z,17.53
2022-12-12T21:06:49.748Z,17.23
2022-12-12T21:09:24.347Z,19.63
2022-12-12T21:11:55.691Z,20.37
2022-12-12T21:14:24.123Z,19.57
2022-12-12T21:16:52.368Z,20.70
2022-12-12T21:19:21.942Z,15.63
2022-12-12T21:21:50.398Z,15.17
2022-12-12T21:24:18.620Z,15.47
2022-12-12T21:26:47.337Z,17.63
2022-12-12T21:29:17.158Z,14.03
2022-12-12T21:31:51.147Z,13.83
2022-12-12T21:34:20.164Z,13.57
2022-12-12T21:36:50.630Z,13.67
2022-12-12T21:39:18.588Z,17.63
2022-12-12T21:41:46.467Z,14.80
2022-12-12T21:44:15.697Z,11.63
2022-12-12T21:46:44.164Z,11.27
2022-12-12T21:49:26.685Z,11.13
2022-12-12T21:51:56.421Z,12.87
2022-12-12T21:54:24.823Z,11.47
2022-12-12T21:56:52.891Z,14.03
2022-12-12T21:59:22.148Z,17.37
2022-12-12T22:01:50.193Z,16.83
2022-12-12T22:04:18.120Z,14.03
2022-12-12T22:06:47.164Z,13.33
2022-12-12T22:09:15.228Z,15.57
2022-12-12T22:11:50.571Z,15.00
2022-12-12T22:14:20.736Z,16.77
2022-12-12T22:16:50.358Z,17.33
2022-12-12T22:19:18.666Z,13.70
2022-12-12T22:21:48.564Z,15.90
2022-12-12T22:24:16.986Z,11.57
2022-12-12T22:26:46.847Z,12.07
2022-12-12T22:29:17.432Z,14.70
2022-12-12T22:31:46.295Z,13.70
2022-12-12T22:34:17.346Z,16.30
2022-12-12T22:36:46.291Z,15.00
2022-12-12T22:39:16.748Z,20.47
2022-12-12T22:41:44.989Z,20.00
2022-12-12T22:44:16.351Z,19.77
2022-12-12T22:46:44.705Z,17.70
2022-12-12T22:49:13.718Z,18.17
2022-12-12T22:51:43.657Z,19.77
2022-12-12T22:54:11.547Z,18.00
2022-12-12T22:56:40.244Z,19.97
2022-12-12T22:59:08.857Z,16.23
2022-12-12T23:01:36.841Z,17.97
2022-12-12T23:04:04.935Z,12.33
2022-12-12T23:06:35.344Z,17.17
2022-12-12T23:09:07.542Z,11.13
2022-12-12T23:11:36.546Z,16.93
2022-12-12T23:14:07.146Z,13.33
2022-12-12T23:16:35.565Z,14.67
2022-12-12T23:19:06.318Z,12.30
2022-12-12T23:21:36.681Z,16.77
2022-12-12T23:24:06.928Z,20.60
2022-12-12T23:26:36.613Z,12.40
2022-12-12T23:29:07.060Z,14.27
2022-12-12T23:31:37.036Z,17.20
2022-12-12T23:34:07.549Z,14.83
2022-12-12T23:36:35.712Z,16.77
2022-12-12T23:39:08.145Z,17.43
2022-12-12T23:41:36.704Z,15.93
2022-12-12T23:44:05.098Z,16.10
2022-12-12T23:46:34.076Z,8.53
2022-12-12T23:49:04.292Z,13.97
2022-12-12T23:51:34.012Z,12.83
2022-12-12T23:54:03.660Z,13.20
2022-12-12T23:56:33.463Z,16.30
2022-12-12T23:59:01.784Z,10.17
